Tressnes — LK9331 — position and weather

sailwx.info

Track history (hours):
 
Tides and Currents Weather Stations Pressure Air Temp Water Temp Dewpoint Dewpoint Depression Visibility Wind Speed Wind Dir Waves Ship Positions

Tressnes

Last reported at 2018-Jan-20 07:46 UTC. Time now 2018-Jan-23 08:16 UTC.
Position N 67°26' E 014°35'.

Length 10 m.

Type: Fishing. MMSI: 257024900.

Date/timePositionNaut miles runAvg speedWind from/ knotsBaromVisibWave heightAir tempDewpointWater temp
2018-Jan-20 07:46N 67°26' E 014°35'2 7.0
2018-Jan-20 07:28N 67°24' E 014°32'3 7.1
2018-Jan-20 07:00N 67°21' E 014°27'3 5.7
2018-Jan-20 06:30N 67°19' E 014°24'2 3.4
2018-Jan-20 05:59N 67°17' E 014°22'0 0.0
2018-Jan-20 05:29N 67°17' E 014°22'0 0.0
2018-Jan-20 04:59N 67°17' E 014°22'0 0.0
2018-Jan-20 04:29N 67°17' E 014°22'0 0.0
2018-Jan-20 03:59N 67°17' E 014°22'0 0.0
2018-Jan-20 03:29N 67°17' E 014°22'0 0.0
2018-Jan-20 02:59N 67°17' E 014°22'0 0.0
2018-Jan-20 02:29N 67°17' E 014°22'0 0.0
2018-Jan-20 01:59N 67°17' E 014°22'0 0.0
2018-Jan-20 01:29N 67°17' E 014°22'0 0.0
2018-Jan-20 00:59N 67°17' E 014°22'0 0.0
2018-Jan-20 00:29N 67°17' E 014°22'0 0.0
2018-Jan-19 23:59N 67°17' E 014°22'0 0.0
2018-Jan-19 23:29N 67°17' E 014°22'0 0.0
2018-Jan-19 22:59N 67°17' E 014°22'0 0.0
2018-Jan-19 22:29N 67°17' E 014°22'0 0.0
2018-Jan-19 21:59N 67°17' E 014°22'0 0.0
2018-Jan-19 21:29N 67°17' E 014°22'0 0.0
2018-Jan-19 20:59N 67°17' E 014°22'0 0.0
2018-Jan-19 20:29N 67°17' E 014°22'0 0.0
2018-Jan-19 19:59N 67°17' E 014°22'0 0.0
2018-Jan-19 19:29N 67°17' E 014°22'0 0.0
2018-Jan-19 18:59N 67°17' E 014°22'0 0.0
2018-Jan-19 18:29N 67°17' E 014°22'0 0.0
2018-Jan-19 17:59N 67°17' E 014°22'0 0.0
2018-Jan-19 17:29N 67°17' E 014°22'0 0.0
2018-Jan-19 16:59N 67°17' E 014°22'0 0.0
2018-Jan-19 16:29N 67°17' E 014°22'0 0.0
2018-Jan-19 15:59N 67°17' E 014°22'0 0.0
2018-Jan-19 15:29N 67°17' E 014°22'0 0.0
2018-Jan-19 14:59N 67°17' E 014°22'0 0.0
2018-Jan-19 14:29N 67°17' E 014°22'0 0.0
2018-Jan-19 13:59N 67°17' E 014°22'0 0.0
2018-Jan-19 13:29N 67°17' E 014°22'0 0.0
2018-Jan-19 12:59N 67°17' E 014°22'0 0.0
2018-Jan-19 12:29N 67°17' E 014°22'0 0.0
2018-Jan-19 11:59N 67°17' E 014°22'0 0.0
2018-Jan-19 11:29N 67°17' E 014°22'0 0.0
2018-Jan-19 10:59N 67°17' E 014°22'0 0.0
2018-Jan-19 10:29N 67°17' E 014°22'0 0.0
2018-Jan-19 09:59N 67°17' E 014°22'0 0.0
2018-Jan-19 09:29N 67°17' E 014°22'0 0.0
2018-Jan-19 08:59N 67°17' E 014°22'0 0.0
2018-Jan-19 08:29N 67°17' E 014°22'0 0.0
2018-Jan-19 07:59N 67°17' E 014°22'0 0.0
2018-Jan-19 07:29N 67°17' E 014°22'0 0.0
2018-Jan-19 06:59N 67°17' E 014°22'0 0.0
2018-Jan-19 06:28N 67°17' E 014°22'0 0.0
2018-Jan-19 05:58N 67°17' E 014°22'0 0.0
2018-Jan-19 05:28N 67°17' E 014°22'0 0.0
2018-Jan-19 04:58N 67°17' E 014°22'0 0.0
2018-Jan-19 04:28N 67°17' E 014°22'0 0.0
2018-Jan-19 03:58N 67°17' E 014°22'0 0.0
2018-Jan-19 03:28N 67°17' E 014°22'0 0.0
2018-Jan-19 02:58N 67°17' E 014°22'0 0.0
2018-Jan-19 02:28N 67°17' E 014°22'0 0.0
2018-Jan-19 01:58N 67°17' E 014°22'0 0.0
2018-Jan-19 01:28N 67°17' E 014°22'0 0.0
2018-Jan-19 00:58N 67°17' E 014°22'0 0.0
2018-Jan-19 00:28N 67°17' E 014°22'0 0.0
2018-Jan-18 23:58N 67°17' E 014°22'0 0.0
2018-Jan-18 23:28N 67°17' E 014°22'0 0.0
2018-Jan-18 22:58N 67°17' E 014°22'0 0.0
2018-Jan-18 22:28N 67°17' E 014°22'0 0.0
2018-Jan-18 21:58N 67°17' E 014°22'0 0.0
2018-Jan-18 21:25N 67°17' E 014°22'0 0.0
2018-Jan-18 20:58N 67°17' E 014°22'2 3.6
2018-Jan-18 20:30N 67°16' E 014°19'3 6.5
2018-Jan-18 20:00N 67°14' E 014°13'3 6.6
2018-Jan-18 19:30N 67°11' E 014°07'  
2018-Jan-12 09:50N 63°10' E 007°52'2 7.0
2018-Jan-12 09:31N 63°08' E 007°48'2 4.4
2018-Jan-12 09:00N 63°07' E 007°44'0 0.0
2018-Jan-12 08:30N 63°07' E 007°44'0 0.0
2018-Jan-12 08:00N 63°07' E 007°44'0 0.0
2018-Jan-12 07:30N 63°07' E 007°44'0 0.0
2018-Jan-12 07:00N 63°07' E 007°44'0 0.0
2018-Jan-12 06:30N 63°07' E 007°44'0 0.0
2018-Jan-12 05:57N 63°07' E 007°44'0 0.0
2018-Jan-12 05:30N 63°07' E 007°44'0 0.0
2018-Jan-12 05:00N 63°07' E 007°44'0 0.0
2018-Jan-12 04:30N 63°07' E 007°44'0 0.0
2018-Jan-12 04:00N 63°07' E 007°44'0 0.0
2018-Jan-12 03:30N 63°07' E 007°44'0 0.0
2018-Jan-12 03:00N 63°07' E 007°44'0 0.0
2018-Jan-12 02:30N 63°07' E 007°44'0 0.0
2018-Jan-12 02:00N 63°07' E 007°44'0 0.0
2018-Jan-12 01:30N 63°07' E 007°44'0 0.0
2018-Jan-12 01:00N 63°07' E 007°44'2 3.3
2018-Jan-12 00:30N 63°07' E 007°40'4 6.8
2018-Jan-11 23:58N 63°06' E 007°33'50 7.2
2018-Jan-11 17:02N 62°33' E 006°11'0 7.8
2018-Jan-11 17:01N 62°33' E 006°11'19 5.9
2018-Jan-11 13:48N 62°19' E 005°43'1 1.9
2018-Jan-11 13:26N 62°19' E 005°42'2 3.3
2018-Jan-11 12:58N 62°19' E 005°39'  
Track history (hours):
 
Tides and Currents Weather Stations Pressure Air Temp Water Temp Dewpoint Dewpoint Depression Visibility Wind Speed Wind Dir Waves Ship Positions

Tressnes

Last reported at 2018-Jan-20 07:46 UTC. Time now 2018-Jan-23 08:16 UTC.
Position N 67°26' E 014°35'.

Length 10 m.

Type: Fishing. MMSI: 257024900.

Date/timePositionNaut miles runAvg speedWind from/ knotsBaromVisibWave heightAir tempDewpointWater temp
2018-Jan-20 07:46N 67°26' E 014°35'2 7.0
2018-Jan-20 07:28N 67°24' E 014°32'3 7.1
2018-Jan-20 07:00N 67°21' E 014°27'3 5.7
2018-Jan-20 06:30N 67°19' E 014°24'2 3.4
2018-Jan-20 05:59N 67°17' E 014°22'0 0.0
2018-Jan-20 05:29N 67°17' E 014°22'0 0.0
2018-Jan-20 04:59N 67°17' E 014°22'0 0.0
2018-Jan-20 04:29N 67°17' E 014°22'0 0.0
2018-Jan-20 03:59N 67°17' E 014°22'0 0.0
2018-Jan-20 03:29N 67°17' E 014°22'0 0.0
2018-Jan-20 02:59N 67°17' E 014°22'0 0.0
2018-Jan-20 02:29N 67°17' E 014°22'0 0.0
2018-Jan-20 01:59N 67°17' E 014°22'0 0.0
2018-Jan-20 01:29N 67°17' E 014°22'0 0.0
2018-Jan-20 00:59N 67°17' E 014°22'0 0.0
2018-Jan-20 00:29N 67°17' E 014°22'0 0.0
2018-Jan-19 23:59N 67°17' E 014°22'0 0.0
2018-Jan-19 23:29N 67°17' E 014°22'0 0.0
2018-Jan-19 22:59N 67°17' E 014°22'0 0.0
2018-Jan-19 22:29N 67°17' E 014°22'0 0.0
2018-Jan-19 21:59N 67°17' E 014°22'0 0.0
2018-Jan-19 21:29N 67°17' E 014°22'0 0.0
2018-Jan-19 20:59N 67°17' E 014°22'0 0.0
2018-Jan-19 20:29N 67°17' E 014°22'0 0.0
2018-Jan-19 19:59N 67°17' E 014°22'0 0.0
2018-Jan-19 19:29N 67°17' E 014°22'0 0.0
2018-Jan-19 18:59N 67°17' E 014°22'0 0.0
2018-Jan-19 18:29N 67°17' E 014°22'0 0.0
2018-Jan-19 17:59N 67°17' E 014°22'0 0.0
2018-Jan-19 17:29N 67°17' E 014°22'0 0.0
2018-Jan-19 16:59N 67°17' E 014°22'0 0.0
2018-Jan-19 16:29N 67°17' E 014°22'0 0.0
2018-Jan-19 15:59N 67°17' E 014°22'0 0.0
2018-Jan-19 15:29N 67°17' E 014°22'0 0.0
2018-Jan-19 14:59N 67°17' E 014°22'0 0.0
2018-Jan-19 14:29N 67°17' E 014°22'0 0.0
2018-Jan-19 13:59N 67°17' E 014°22'0 0.0
2018-Jan-19 13:29N 67°17' E 014°22'0 0.0
2018-Jan-19 12:59N 67°17' E 014°22'0 0.0
2018-Jan-19 12:29N 67°17' E 014°22'0 0.0
2018-Jan-19 11:59N 67°17' E 014°22'0 0.0
2018-Jan-19 11:29N 67°17' E 014°22'0 0.0
2018-Jan-19 10:59N 67°17' E 014°22'0 0.0
2018-Jan-19 10:29N 67°17' E 014°22'0 0.0
2018-Jan-19 09:59N 67°17' E 014°22'0 0.0
2018-Jan-19 09:29N 67°17' E 014°22'0 0.0
2018-Jan-19 08:59N 67°17' E 014°22'0 0.0
2018-Jan-19 08:29N 67°17' E 014°22'0 0.0
2018-Jan-19 07:59N 67°17' E 014°22'0 0.0
2018-Jan-19 07:29N 67°17' E 014°22'0 0.0
2018-Jan-19 06:59N 67°17' E 014°22'0 0.0
2018-Jan-19 06:28N 67°17' E 014°22'0 0.0
2018-Jan-19 05:58N 67°17' E 014°22'0 0.0
2018-Jan-19 05:28N 67°17' E 014°22'0 0.0
2018-Jan-19 04:58N 67°17' E 014°22'0 0.0
2018-Jan-19 04:28N 67°17' E 014°22'0 0.0
2018-Jan-19 03:58N 67°17' E 014°22'0 0.0
2018-Jan-19 03:28N 67°17' E 014°22'0 0.0
2018-Jan-19 02:58N 67°17' E 014°22'0 0.0
2018-Jan-19 02:28N 67°17' E 014°22'0 0.0
2018-Jan-19 01:58N 67°17' E 014°22'0 0.0
2018-Jan-19 01:28N 67°17' E 014°22'0 0.0
2018-Jan-19 00:58N 67°17' E 014°22'0 0.0
2018-Jan-19 00:28N 67°17' E 014°22'0 0.0
2018-Jan-18 23:58N 67°17' E 014°22'0 0.0
2018-Jan-18 23:28N 67°17' E 014°22'0 0.0
2018-Jan-18 22:58N 67°17' E 014°22'0 0.0
2018-Jan-18 22:28N 67°17' E 014°22'0 0.0
2018-Jan-18 21:58N 67°17' E 014°22'0 0.0
2018-Jan-18 21:25N 67°17' E 014°22'0 0.0
2018-Jan-18 20:58N 67°17' E 014°22'2 3.6
2018-Jan-18 20:30N 67°16' E 014°19'3 6.5
2018-Jan-18 20:00N 67°14' E 014°13'3 6.6
2018-Jan-18 19:30N 67°11' E 014°07'  
2018-Jan-12 09:50N 63°10' E 007°52'2 7.0
2018-Jan-12 09:31N 63°08' E 007°48'2 4.4
2018-Jan-12 09:00N 63°07' E 007°44'0 0.0
2018-Jan-12 08:30N 63°07' E 007°44'0 0.0
2018-Jan-12 08:00N 63°07' E 007°44'0 0.0
2018-Jan-12 07:30N 63°07' E 007°44'0 0.0
2018-Jan-12 07:00N 63°07' E 007°44'0 0.0
2018-Jan-12 06:30N 63°07' E 007°44'0 0.0
2018-Jan-12 05:57N 63°07' E 007°44'0 0.0
2018-Jan-12 05:30N 63°07' E 007°44'0 0.0
2018-Jan-12 05:00N 63°07' E 007°44'0 0.0
2018-Jan-12 04:30N 63°07' E 007°44'0 0.0
2018-Jan-12 04:00N 63°07' E 007°44'0 0.0
2018-Jan-12 03:30N 63°07' E 007°44'0 0.0
2018-Jan-12 03:00N 63°07' E 007°44'0 0.0
2018-Jan-12 02:30N 63°07' E 007°44'0 0.0
2018-Jan-12 02:00N 63°07' E 007°44'0 0.0
2018-Jan-12 01:30N 63°07' E 007°44'0 0.0
2018-Jan-12 01:00N 63°07' E 007°44'2 3.3
2018-Jan-12 00:30N 63°07' E 007°40'4 6.8
2018-Jan-11 23:58N 63°06' E 007°33'50 7.2
2018-Jan-11 17:02N 62°33' E 006°11'0 7.8
2018-Jan-11 17:01N 62°33' E 006°11'19 5.9
2018-Jan-11 13:48N 62°19' E 005°43'1 1.9
2018-Jan-11 13:26N 62°19' E 005°42'2 3.3
2018-Jan-11 12:58N 62°19' E 005°39'  

Dump ship's entire track history